Time;durP1;ratioP1;P1;durP2;ratioP2;P2;SDS_P1;SDS_P2;PMS_P1;PMS_P2;Temp;Humidity;BMP_temperature;BMP_pressure;BME280_temperature;BME280_humidity;BME280_pressure;Samples;Min_cycle;Max_cycle;Signal;HPM_P1;HPM_P2
2022/11/23 00:02:13;;;;;;;20.50;9.70;;;;;;;6.23;100.00;99563.34;5035328;28;20031;-88
2022/11/23 00:04:38;;;;;;;15.80;9.32;;;;;;;6.23;100.00;99553.59;5034540;28;20125;-87
2022/11/23 00:07:04;;;;;;;19.95;9.70;;;;;;;6.24;100.00;99559.69;5050683;28;20119;-86
2022/11/23 00:09:29;;;;;;;20.00;9.73;;;;;;;6.23;100.00;99560.69;5034309;28;20042;-87
2022/11/23 00:11:55;;;;;;;20.33;9.50;;;;;;;6.21;100.00;99560.84;5034702;28;20044;-86
2022/11/23 00:14:20;;;;;;;24.58;10.30;;;;;;;6.19;100.00;99557.50;5034796;28;20029;-85
2022/11/23 00:16:45;;;;;;;19.63;9.15;;;;;;;6.17;100.00;99562.09;5019920;28;20068;-85
2022/11/23 00:19:11;;;;;;;20.13;9.68;;;;;;;6.15;100.00;99562.25;5052132;28;20073;-85
2022/11/23 00:21:37;;;;;;;17.15;9.85;;;;;;;6.13;100.00;99569.44;5037498;28;20432;-85
2022/11/23 00:24:02;;;;;;;20.13;9.38;;;;;;;6.10;100.00;99572.38;5035533;28;20030;-85
2022/11/23 00:26:28;;;;;;;23.73;9.88;;;;;;;6.12;100.00;99566.94;5033474;28;20030;-84
2022/11/23 00:28:53;;;;;;;20.33;9.75;;;;;;;6.11;100.00;99566.13;5049531;28;20038;-86
2022/11/23 00:31:20;;;;;;;20.40;10.23;;;;;;;6.11;100.00;99566.13;5034215;28;20030;-84
2022/11/23 00:33:50;;;;;;;18.27;9.20;;;;;;;6.10;100.00;99574.19;5035704;28;20079;-84
2022/11/23 00:36:17;;;;;;;19.67;9.70;;;;;;;6.08;100.00;99571.69;5034223;28;20140;-84
2022/11/23 00:38:43;;;;;;;20.40;9.05;;;;;;;6.07;100.00;99574.47;5033650;28;20022;-84
2022/11/23 00:41:11;;;;;;;23.15;8.90;;;;;;;6.05;100.00;99574.63;5033600;28;20445;-86
2022/11/23 00:43:37;;;;;;;20.42;8.98;;;;;;;6.07;100.00;99587.69;5033587;28;20075;-85
2022/11/23 00:46:09;;;;;;;14.98;7.88;;;;;;;6.07;100.00;99588.50;5033606;28;20112;-85
2022/11/23 00:48:35;;;;;;;16.00;7.68;;;;;;;6.09;100.00;99593.63;5033770;28;20585;-85
2022/11/23 00:51:03;;;;;;;20.60;7.50;;;;;;;6.09;100.00;99591.00;5033456;28;20073;-82
2022/11/23 00:53:28;;;;;;;15.05;8.13;;;;;;;6.09;100.00;99578.66;5033670;28;20033;-83
2022/11/23 00:55:55;;;;;;;14.30;8.13;;;;;;;6.05;100.00;99571.16;5033223;28;20036;-82
2022/11/23 00:58:20;;;;;;;14.68;8.60;;;;;;;6.02;100.00;99566.97;5033525;28;20026;-82
2022/11/23 01:00:46;;;;;;;17.15;8.90;;;;;;;5.98;100.00;99578.78;5033497;28;20117;-82
2022/11/23 01:03:11;;;;;;;15.65;9.25;;;;;;;5.92;100.00;99584.59;5032877;28;20091;-81
2022/11/23 01:05:38;;;;;;;24.02;11.40;;;;;;;5.85;100.00;99588.75;5033305;28;20041;-82
2022/11/23 01:08:04;;;;;;;17.50;10.45;;;;;;;5.78;100.00;99584.03;5033087;28;20067;-81
2022/11/23 01:10:30;;;;;;;21.63;10.40;;;;;;;5.75;100.00;99583.50;5033240;28;20059;-81
2022/11/23 01:12:56;;;;;;;19.50;10.07;;;;;;;5.70;100.00;99594.44;5033034;28;20034;-82
2022/11/23 01:15:22;;;;;;;22.90;11.52;;;;;;;5.76;100.00;99593.06;5033456;28;20034;-82
2022/11/23 01:17:47;;;;;;;20.80;11.23;;;;;;;5.79;100.00;99590.16;5033284;28;20040;-83
2022/11/23 01:20:12;;;;;;;22.20;11.73;;;;;;;5.81;100.00;99594.31;5033114;28;20085;-84
2022/11/23 01:22:37;;;;;;;21.30;10.85;;;;;;;5.83;100.00;99591.53;5033492;28;20056;-84
2022/11/23 01:25:03;;;;;;;22.20;11.65;;;;;;;5.85;100.00;99586.94;5033369;28;20034;-82
2022/11/23 01:27:29;;;;;;;23.50;10.45;;;;;;;5.87;100.00;99598.22;5033342;28;20091;-82
2022/11/23 01:29:54;;;;;;;27.40;12.02;;;;;;;5.91;100.00;99585.56;5033323;28;20087;-82
2022/11/23 01:32:19;;;;;;;25.42;11.38;;;;;;;5.91;100.00;99589.06;5031764;28;20036;-82
2022/11/23 01:34:45;;;;;;;21.38;10.25;;;;;;;5.90;100.00;99595.31;5033001;28;20037;-81
2022/11/23 01:37:10;;;;;;;26.50;11.45;;;;;;;5.90;100.00;99592.66;5033448;28;20124;-83
2022/11/23 01:39:35;;;;;;;21.65;10.90;;;;;;;5.90;100.00;99602.41;5034946;28;20041;-83
2022/11/23 01:42:05;;;;;;;28.48;10.30;;;;;;;5.90;100.00;99605.88;5037184;28;20037;-82
2022/11/23 01:44:32;;;;;;;24.40;10.68;;;;;;;5.92;100.00;99608.38;5036121;28;20038;-82
2022/11/23 01:47:00;;;;;;;27.73;10.85;;;;;;;5.91;100.00;99604.91;5038843;28;20033;-82
2022/11/23 01:49:34;;;;;;;26.10;10.25;;;;;;;5.91;100.00;99604.91;5036638;28;20057;-82
2022/11/23 01:52:28;;;;;;;28.55;9.77;;;;;;;5.94;100.00;99609.03;5038044;28;20112;-81
2022/11/23 01:54:55;;;;;;;23.88;9.25;;;;;;;5.92;100.00;99605.72;5037564;28;20041;-82
2022/11/23 01:57:37;;;;;;;22.50;9.43;;;;;;;5.91;100.00;99606.69;5036798;28;20121;-82
2022/11/23 02:00:02;;;;;;;20.38;8.40;;;;;;;5.91;100.00;99610.19;5036341;28;20538;-82
2022/11/23 02:02:31;;;;;;;23.33;8.55;;;;;;;5.90;100.00;99608.50;5036392;28;20265;-81
2022/11/23 02:04:59;;;;;;;22.58;8.30;;;;;;;5.88;100.00;99607.81;5036880;28;20088;-82
2022/11/23 02:07:25;;;;;;;20.08;7.60;;;;;;;5.89;100.00;99612.09;5035927;28;20029;-83
2022/11/23 02:09:51;;;;;;;21.35;6.60;;;;;;;5.90;100.00;99612.97;5036295;28;20036;-82
2022/11/23 02:12:16;;;;;;;17.77;6.40;;;;;;;5.91;100.00;99618.09;5036885;28;20029;-82
2022/11/23 02:14:43;;;;;;;16.30;6.22;;;;;;;5.90;100.00;99615.59;5036620;28;20029;-82
2022/11/23 02:17:08;;;;;;;19.70;6.53;;;;;;;5.90;100.00;99616.44;5034735;28;20458;-81
2022/11/23 02:19:59;;;;;;;20.00;6.10;;;;;;;5.92;100.00;99618.94;5035595;28;20045;-83
2022/11/23 02:23:02;;;;;;;16.38;6.10;;;;;;;5.90;100.00;99615.59;5036447;28;20083;-81
2022/11/23 02:25:43;;;;;;;13.55;5.65;;;;;;;5.87;100.00;99616.69;5035724;28;20438;-81
2022/11/23 02:28:22;;;;;;;13.98;5.53;;;;;;;5.85;100.00;99612.53;5036740;28;20034;-82
2022/11/23 02:30:50;;;;;;;15.70;6.22;;;;;;;5.86;100.00;99619.47;5036746;28;20037;-81
2022/11/23 02:33:15;;;;;;;19.73;6.07;;;;;;;5.85;100.00;99618.63;5036812;28;20036;-81
2022/11/23 02:35:49;;;;;;;16.27;7.05;;;;;;;5.87;100.00;99611.41;5035520;28;20029;-82
2022/11/23 02:38:16;;;;;;;15.95;7.05;;;;;;;5.93;100.00;99613.50;5035830;28;20079;-81
2022/11/23 02:40:42;;;;;;;19.17;7.47;;;;;;;5.93;100.00;99613.50;5035747;28;20065;-82
2022/11/23 02:43:07;;;;;;;20.75;7.72;;;;;;;5.92;100.00;99609.19;5036091;28;20042;-82
2022/11/23 02:45:35;;;;;;;23.48;9.00;;;;;;;5.91;100.00;99618.09;5036031;28;20034;-81
2022/11/23 02:48:01;;;;;;;19.38;9.57;;;;;;;5.93;100.00;99616.16;5035547;28;20025;-83
2022/11/23 02:50:26;;;;;;;18.42;8.10;;;;;;;5.93;100.00;99621.44;5034541;28;20044;-82
2022/11/23 02:52:51;;;;;;;15.68;7.90;;;;;;;5.94;100.00;99622.25;5035289;28;20036;-81
2022/11/23 02:55:17;;;;;;;15.15;8.63;;;;;;;5.94;100.00;99622.25;5035875;28;20033;-82
2022/11/23 02:57:43;;;;;;;16.35;9.00;;;;;;;5.93;100.00;99620.59;5035359;28;20034;-82
2022/11/23 03:00:09;;;;;;;20.13;8.73;;;;;;;5.91;100.00;99630.44;5035257;28;20026;-82
2022/11/23 03:02:34;;;;;;;17.92;9.20;;;;;;;5.90;100.00;99623.53;5035226;28;20037;-80
2022/11/23 03:04:59;;;;;;;14.93;9.02;;;;;;;5.89;100.00;99625.31;5035736;28;20374;-82
2022/11/23 03:07:25;;;;;;;19.30;10.75;;;;;;;5.91;100.00;99619.88;5035161;28;20044;-81
2022/11/23 03:09:50;;;;;;;22.45;11.85;;;;;;;5.94;100.00;99623.09;5035112;28;20036;-81
2022/11/23 03:12:15;;;;;;;19.73;11.98;;;;;;;5.93;100.00;99620.59;5035730;28;20494;-82
2022/11/23 03:14:41;;;;;;;21.00;11.90;;;;;;;5.94;100.00;99617.81;5035548;28;20079;-81
2022/11/23 03:17:06;;;;;;;20.38;12.05;;;;;;;5.94;100.00;99622.25;5034642;28;20034;-83
2022/11/23 03:19:32;;;;;;;24.60;12.13;;;;;;;5.96;100.00;99622.97;5035441;28;20136;-81
2022/11/23 03:21:57;;;;;;;21.75;12.23;;;;;;;5.98;100.00;99628.97;5034873;28;20033;-81
2022/11/23 03:24:22;;;;;;;19.92;12.23;;;;;;;5.99;100.00;99630.63;5034781;28;20112;-81
2022/11/23 03:26:48;;;;;;;23.35;12.32;;;;;;;6.03;100.00;99633.81;5034464;28;20363;-81
2022/11/23 03:29:14;;;;;;;17.08;11.73;;;;;;;6.03;100.00;99632.03;5034860;28;20033;-82
2022/11/23 03:31:39;;;;;;;16.10;11.38;;;;;;;6.03;100.00;99626.75;5034669;28;20034;-81
2022/11/23 03:34:04;;;;;;;21.63;11.35;;;;;;;6.06;100.00;99631.75;5035332;28;20078;-80
2022/11/23 03:36:30;;;;;;;16.05;10.60;;;;;;;6.07;100.00;99632.56;5034254;28;20037;-82
2022/11/23 03:38:55;;;;;;;21.20;11.15;;;;;;;6.10;100.00;99629.66;5033183;28;20033;-83
2022/11/23 03:41:20;;;;;;;20.60;10.00;;;;;;;6.11;100.00;99639.25;5034359;28;20068;-81
2022/11/23 03:43:46;;;;;;;15.57;9.27;;;;;;;6.13;100.00;99639.94;5034623;28;20129;-81
2022/11/23 03:46:11;;;;;;;13.52;9.05;;;;;;;6.15;100.00;99630.06;5034300;28;20026;-81
2022/11/23 03:48:36;;;;;;;12.45;8.25;;;;;;;6.16;100.00;99634.38;5034352;28;20037;-81
2022/11/23 03:51:02;;;;;;;13.45;8.93;;;;;;;6.15;100.00;99638.81;5034257;28;20044;-81
2022/11/23 03:53:27;;;;;;;14.00;8.60;;;;;;;6.17;100.00;99638.69;5034443;28;20098;-83
2022/11/23 03:55:55;;;;;;;11.18;7.90;;;;;;;6.20;100.00;99640.22;5032982;28;20037;-81
2022/11/23 03:58:20;;;;;;;16.50;8.32;;;;;;;6.20;100.00;99638.41;5034061;28;20072;-82
2022/11/23 04:00:45;;;;;;;14.70;9.27;;;;;;;6.23;100.00;99639.94;5034466;28;20068;-83
2022/11/23 04:03:11;;;;;;;16.85;9.30;;;;;;;6.26;100.00;99651.03;5033817;28;20037;-82
2022/11/23 04:05:36;;;;;;;14.27;8.88;;;;;;;6.27;100.00;99636.88;5034088;28;20071;-84
2022/11/23 04:08:02;;;;;;;13.27;8.88;;;;;;;6.27;100.00;99634.22;5034291;28;20029;-83
2022/11/23 04:10:27;;;;;;;13.77;8.63;;;;;;;6.26;100.00;99637.84;5033133;28;20037;-83
2022/11/23 04:12:52;;;;;;;13.73;8.43;;;;;;;6.28;100.00;99640.34;5041064;28;20036;-81
2022/11/23 04:15:18;;;;;;;12.70;8.52;;;;;;;6.28;100.00;99640.34;5044006;28;20033;-82
2022/11/23 04:17:44;;;;;;;13.70;8.75;;;;;;;6.27;100.00;99631.59;5043649;28;20041;-82
2022/11/23 04:20:10;;;;;;;12.40;8.05;;;;;;;6.25;100.00;99635.34;5042555;28;20058;-84
2022/11/23 04:22:35;;;;;;;12.63;8.43;;;;;;;6.28;100.00;99637.69;5044456;28;20079;-82
2022/11/23 04:25:00;;;;;;;13.50;8.65;;;;;;;6.30;100.00;99630.44;5042906;28;20045;-81
2022/11/23 04:27:26;;;;;;;11.82;7.93;;;;;;;6.30;100.00;99633.94;5034069;28;20030;-84
2022/11/23 04:29:51;;;;;;;16.92;8.07;;;;;;;6.30;100.00;99631.31;5034109;28;20123;-82
2022/11/23 04:32:16;;;;;;;13.85;7.53;;;;;;;6.31;100.00;99629.50;5033812;28;20069;-82
2022/11/23 04:34:42;;;;;;;12.00;7.40;;;;;;;6.33;100.00;99643.41;5033589;28;20033;-82
2022/11/23 04:37:07;;;;;;;11.98;7.30;;;;;;;6.34;100.00;99631.84;5033052;28;20063;-84
2022/11/23 04:39:33;;;;;;;13.70;7.25;;;;;;;6.36;100.00;99635.19;5033404;28;20426;-84
2022/11/23 04:41:58;;;;;;;13.13;7.18;;;;;;;6.40;100.00;99630.44;5033532;28;20037;-83
2022/11/23 04:44:23;;;;;;;10.32;6.63;;;;;;;6.40;100.00;99633.91;5033516;28;20040;-82
2022/11/23 04:46:49;;;;;;;11.40;6.03;;;;;;;6.39;100.00;99626.13;5033401;28;20385;-83
2022/11/23 04:49:15;;;;;;;8.32;5.95;;;;;;;6.39;100.00;99631.41;5033147;28;20061;-83
2022/11/23 04:51:41;;;;;;;13.80;6.05;;;;;;;6.37;100.00;99625.47;5033297;28;20068;-85
2022/11/23 04:54:06;;;;;;;10.98;5.63;;;;;;;6.40;100.00;99630.44;5033511;28;20529;-84
2022/11/23 04:56:32;;;;;;;11.38;5.40;;;;;;;6.38;100.00;99630.59;5031930;28;20025;-83
2022/11/23 04:58:57;;;;;;;16.83;5.93;;;;;;;6.37;100.00;99628.91;5032381;28;20123;-83
2022/11/23 05:01:22;;;;;;;14.88;5.25;;;;;;;6.34;100.00;99639.78;5033252;28;20033;-83
2022/11/23 05:03:48;;;;;;;16.23;5.47;;;;;;;6.35;100.00;99639.63;5033251;28;20033;-82
2022/11/23 05:06:13;;;;;;;9.02;5.22;;;;;;;6.34;100.00;99643.28;5033336;28;20065;-82
2022/11/23 05:08:38;;;;;;;17.95;5.50;;;;;;;6.34;100.00;99637.13;5033397;28;20034;-83
2022/11/23 05:11:04;;;;;;;14.60;5.65;;;;;;;6.35;100.00;99636.16;5033574;28;20091;-82
2022/11/23 05:13:29;;;;;;;14.05;5.95;;;;;;;6.34;100.00;99645.06;5034013;28;20113;-82
2022/11/23 05:15:55;;;;;;;14.55;5.07;;;;;;;6.33;100.00;99638.13;5037434;28;20111;-83
2022/11/23 05:18:20;;;;;;;13.13;6.18;;;;;;;6.31;100.00;99634.78;5037825;28;20420;-82
2022/11/23 05:20:45;;;;;;;14.55;5.57;;;;;;;6.26;100.00;99629.91;5037146;28;20508;-83
2022/11/23 05:23:11;;;;;;;10.40;5.70;;;;;;;6.24;100.00;99645.09;5037135;28;20035;-82
2022/11/23 05:25:37;;;;;;;13.38;5.63;;;;;;;6.23;100.00;99637.31;5037846;28;20030;-83
2022/11/23 05:28:02;;;;;;;13.02;5.45;;;;;;;6.21;100.00;99631.31;5037936;28;20455;-82
2022/11/23 05:30:28;;;;;;;9.07;5.43;;;;;;;6.20;100.00;99643.69;5037171;28;20033;-80
2022/11/23 05:32:53;;;;;;;13.35;5.65;;;;;;;6.18;100.00;99635.09;5037335;28;20030;-81
2022/11/23 05:35:18;;;;;;;13.82;5.03;;;;;;;6.13;100.00;99632.84;5036927;28;20043;-82
2022/11/23 05:37:44;;;;;;;10.90;4.68;;;;;;;6.14;100.00;99631.88;5037452;28;20029;-84
2022/11/23 05:40:10;;;;;;;12.57;5.00;;;;;;;6.08;100.00;99635.06;5036853;28;20046;-83
2022/11/23 05:42:36;;;;;;;11.50;4.85;;;;;;;6.03;100.00;99636.47;5037085;28;20036;-83
2022/11/23 05:45:01;;;;;;;10.63;5.05;;;;;;;6.03;100.00;99639.09;5036778;28;20175;-82
2022/11/23 05:47:27;;;;;;;12.50;4.95;;;;;;;6.04;100.00;99641.59;5035834;28;20045;-83
2022/11/23 05:49:52;;;;;;;11.13;5.18;;;;;;;6.06;100.00;99641.47;5036285;28;20072;-81
2022/11/23 05:52:18;;;;;;;16.65;5.43;;;;;;;6.10;100.00;99641.03;5036304;28;20030;-83
2022/11/23 05:54:43;;;;;;;8.88;4.65;;;;;;;6.11;100.00;99641.88;5036581;28;20037;-83
2022/11/23 05:57:09;;;;;;;9.77;4.28;;;;;;;6.10;100.00;99643.69;5036967;28;20374;-84
2022/11/23 05:59:34;;;;;;;13.57;4.40;;;;;;;6.10;100.00;99637.56;5036315;28;20034;-82
2022/11/23 06:02:00;;;;;;;13.15;4.57;;;;;;;6.07;100.00;99640.50;5036316;28;20037;-82
2022/11/23 06:04:25;;;;;;;11.30;4.55;;;;;;;6.05;100.00;99634.53;5036930;28;20037;-84
2022/11/23 06:06:53;;;;;;;17.33;5.15;;;;;;;6.02;100.00;99630.34;5036001;28;20030;-83
2022/11/23 06:09:19;;;;;;;12.43;4.43;;;;;;;6.04;100.00;99630.22;5036189;28;20466;-84
2022/11/23 06:11:44;;;;;;;15.60;4.53;;;;;;;6.00;100.00;99634.91;5036442;28;20029;-84
2022/11/23 06:14:09;;;;;;;12.68;4.55;;;;;;;5.99;100.00;99636.75;5036342;28;20035;-85
2022/11/23 06:16:35;;;;;;;10.52;4.28;;;;;;;5.99;100.00;99642.03;5036161;28;20029;-86
2022/11/23 06:19:00;;;;;;;16.77;5.13;;;;;;;5.98;100.00;99639.53;5035909;28;20481;-84
2022/11/23 06:21:25;;;;;;;15.00;4.85;;;;;;;5.98;100.00;99635.06;5036424;28;20029;-85
2022/11/23 06:23:51;;;;;;;17.73;5.25;;;;;;;5.98;100.00;99639.53;5036322;28;20059;-78
2022/11/23 06:26:17;;;;;;;13.15;4.90;;;;;;;5.97;100.00;99633.41;5035777;28;20037;-80
2022/11/23 06:28:42;;;;;;;15.52;4.97;;;;;;;6.02;100.00;99638.28;5035819;28;20148;-83
2022/11/23 06:31:08;;;;;;;14.25;4.63;;;;;;;5.99;100.00;99634.09;5035739;28;20037;-82
2022/11/23 06:33:34;;;;;;;14.02;4.78;;;;;;;5.94;100.00;99635.44;5036686;28;20088;-86
2022/11/23 06:36:02;;;;;;;14.27;4.20;;;;;;;5.82;100.00;99638.25;5036313;28;20029;-86
2022/11/23 06:38:27;;;;;;;15.85;3.97;;;;;;;5.75;100.00;99642.41;5034479;28;20382;-83
2022/11/23 06:40:57;;;;;;;20.73;4.55;;;;;;;5.63;100.00;99639.03;5036125;28;20037;-82
2022/11/23 06:43:22;;;;;;;14.43;3.20;;;;;;;5.54;100.00;99647.78;5035493;28;20423;-84
2022/11/23 06:45:47;;;;;;;18.50;3.80;;;;;;;5.45;100.00;99651.25;5035154;28;20040;-82
2022/11/23 06:48:13;;;;;;;14.07;3.67;;;;;;;5.35;100.00;99640.66;5035427;28;20044;-83
2022/11/23 06:50:38;;;;;;;14.85;3.30;;;;;;;5.27;100.00;99649.22;5035618;28;20037;-77
2022/11/23 06:53:04;;;;;;;22.33;3.58;;;;;;;5.20;100.00;99647.28;5035263;28;20038;-82
2022/11/23 06:55:29;;;;;;;13.63;2.88;;;;;;;5.16;100.00;99656.41;5035736;28;20029;-81
2022/11/23 06:57:55;;;;;;;12.02;3.00;;;;;;;5.16;100.00;99657.22;5035598;28;20103;-84
2022/11/23 07:00:21;;;;;;;16.42;2.75;;;;;;;5.08;100.00;99665.00;5036293;28;20116;-80
2022/11/23 07:02:53;;;;;;;14.05;3.00;;;;;;;4.98;100.00;99669.38;5036161;28;20061;-82
2022/11/23 07:05:19;;;;;;;14.52;3.20;;;;;;;4.93;100.00;99672.41;5038963;28;20039;-81
2022/11/23 07:07:44;;;;;;;15.00;2.90;;;;;;;4.88;100.00;99670.16;5038339;28;20108;-79
2022/11/23 07:10:10;;;;;;;19.17;3.80;;;;;;;4.86;100.00;99679.16;5033583;28;20044;-79
2022/11/23 07:12:35;;;;;;;10.43;2.80;;;;;;;4.87;100.00;99679.03;5034888;28;20037;-83
2022/11/23 07:15:01;;;;;;;11.38;2.63;;;;;;;4.88;100.00;99675.44;5035217;28;20487;-81
2022/11/23 07:17:28;;;;;;;16.45;3.60;;;;;;;4.93;100.00;99681.16;5034772;28;20034;-82
2022/11/23 07:19:53;;;;;;;17.27;3.03;;;;;;;5.03;100.00;99691.75;5034287;28;20530;-81
2022/11/23 07:22:19;;;;;;;14.88;3.13;;;;;;;5.12;100.00;99677.78;5034639;28;20076;-83
2022/11/23 07:24:44;;;;;;;11.90;2.90;;;;;;;5.17;100.00;99679.19;5034789;28;20120;-82
2022/11/23 07:27:09;;;;;;;15.20;2.67;;;;;;;5.22;100.00;99680.44;5034319;28;20033;-82
2022/11/23 07:29:35;;;;;;;9.20;2.63;;;;;;;5.28;100.00;99677.28;5034495;28;20102;-82
2022/11/23 07:32:00;;;;;;;13.35;2.70;;;;;;;5.30;100.00;99683.25;5034633;28;20183;-79
2022/11/23 07:34:29;;;;;;;12.63;2.30;;;;;;;5.34;100.00;99683.81;5034202;28;20071;-80
2022/11/23 07:36:54;;;;;;;14.52;3.00;;;;;;;5.39;100.00;99684.25;5033359;28;20033;-83
2022/11/23 07:39:19;;;;;;;10.13;2.20;;;;;;;5.45;100.00;99693.44;5033862;28;20377;-83
2022/11/23 07:41:48;;;;;;;12.73;3.13;;;;;;;5.46;100.00;99697.75;5034620;28;20415;-78
2022/11/23 07:44:13;;;;;;;15.02;3.08;;;;;;;5.49;100.00;99700.09;5034467;28;20025;-83
2022/11/23 07:46:39;;;;;;;19.92;3.17;;;;;;;5.54;100.00;99699.69;5034539;28;20029;-83
2022/11/23 07:49:04;;;;;;;16.67;3.33;;;;;;;5.58;100.00;99712.50;5034168;28;20490;-83
2022/11/23 07:51:29;;;;;;;14.02;2.47;;;;;;;5.67;100.00;99708.22;5034029;28;20044;-81
2022/11/23 07:53:56;;;;;;;15.52;2.80;;;;;;;5.70;100.00;99707.09;5034121;28;20034;-79
2022/11/23 07:56:21;;;;;;;18.42;3.42;;;;;;;5.75;100.00;99710.19;5034132;28;20034;-84
2022/11/23 07:58:47;;;;;;;13.32;2.92;;;;;;;5.82;100.00;99706.88;5033875;28;20038;-81
2022/11/23 08:01:17;;;;;;;26.67;2.70;;;;;;;5.89;100.00;99714.25;5032680;28;20026;-80
2022/11/23 08:03:46;;;;;;;15.90;2.67;;;;;;;5.92;100.00;99706.88;5033971;28;20530;-79
2022/11/23 08:06:12;;;;;;;20.50;2.95;;;;;;;5.97;100.00;99712.63;5034155;28;20030;-84
2022/11/23 08:08:38;;;;;;;16.48;2.67;;;;;;;5.99;100.00;99715.97;5032877;28;20125;-80
2022/11/23 08:11:07;;;;;;;19.33;3.00;;;;;;;5.99;100.00;99709.84;5035253;28;20068;-81
2022/11/23 08:13:33;;;;;;;15.32;2.60;;;;;;;5.96;100.00;99716.19;5034107;28;20496;-83
2022/11/23 08:15:59;;;;;;;15.70;3.03;;;;;;;5.94;100.00;99720.78;5033638;28;20048;-81
2022/11/23 08:18:25;;;;;;;12.50;2.58;;;;;;;5.93;100.00;99718.28;5033311;28;20139;-83
2022/11/23 08:20:51;;;;;;;15.90;3.08;;;;;;;5.91;100.00;99721.06;5033367;28;20069;-81
2022/11/23 08:23:17;;;;;;;14.82;2.80;;;;;;;5.92;100.00;99720.06;5032583;28;20095;-84
2022/11/23 08:25:42;;;;;;;14.77;3.03;;;;;;;5.94;100.00;99715.50;5033988;28;20040;-81
2022/11/23 08:28:07;;;;;;;15.57;2.80;;;;;;;5.96;100.00;99712.72;5033631;28;20053;-82
2022/11/23 08:30:33;;;;;;;12.90;2.63;;;;;;;5.98;100.00;99709.00;5033935;28;20539;-80
2022/11/23 08:33:03;;;;;;;14.05;2.28;;;;;;;5.98;100.00;99709.00;5033613;28;20098;-81
2022/11/23 08:35:29;;;;;;;13.70;2.78;;;;;;;6.00;100.00;99706.22;5033485;28;20033;-85
2022/11/23 08:37:54;;;;;;;15.48;2.50;;;;;;;6.06;100.00;99708.34;5033692;28;20467;-82
2022/11/23 08:40:19;;;;;;;16.27;2.90;;;;;;;6.11;100.00;99705.28;5033339;28;20458;-86
2022/11/23 08:42:46;;;;;;;12.05;2.17;;;;;;;6.14;100.00;99705.81;5033849;28;20029;-82
2022/11/23 08:45:11;;;;;;;16.42;2.97;;;;;;;6.19;100.00;99705.41;5034037;28;20033;-83
2022/11/23 08:47:36;;;;;;;13.98;2.72;;;;;;;6.18;100.00;99699.28;5033169;28;20064;-80
2022/11/23 08:50:02;;;;;;;12.88;3.00;;;;;;;6.17;100.00;99696.78;5032741;28;20065;-80
2022/11/23 08:52:27;;;;;;;15.93;2.67;;;;;;;6.17;100.00;99696.78;5032553;28;20037;-80
2022/11/23 08:54:53;;;;;;;8.30;2.30;;;;;;;6.09;100.00;99686.94;5033594;28;20048;-80
2022/11/23 08:57:18;;;;;;;16.63;2.58;;;;;;;6.07;100.00;99688.84;5033351;28;20033;-82
2022/11/23 08:59:43;;;;;;;9.30;2.38;;;;;;;6.08;100.00;99679.97;5033317;28;20385;-78
2022/11/23 09:02:12;;;;;;;17.98;2.78;;;;;;;6.12;100.00;99670.81;5033978;28;20450;-80
2022/11/23 09:04:39;;;;;;;10.90;2.80;;;;;;;6.21;100.00;99676.22;5033580;28;20087;-80
2022/11/23 09:07:04;;;;;;;12.02;2.58;;;;;;;6.25;100.00;99667.88;5034151;28;20037;-81
2022/11/23 09:09:30;;;;;;;14.05;2.90;;;;;;;6.33;100.00;99648.69;5049674;28;20094;-82
2022/11/23 09:11:55;;;;;;;12.65;2.58;;;;;;;6.36;100.00;99645.78;5034347;28;20462;-77
2022/11/23 09:14:21;;;;;;;11.32;2.60;;;;;;;6.41;100.00;99648.00;5033290;28;20033;-78
2022/11/23 09:16:46;;;;;;;17.83;2.75;;;;;;;6.42;100.00;99641.72;5033224;28;20120;-79
2022/11/23 09:19:12;;;;;;;13.00;2.50;;;;;;;6.46;100.00;99636.00;5033076;28;20140;-81
2022/11/23 09:21:38;;;;;;;9.25;2.15;;;;;;;6.50;100.00;99628.63;5033928;28;20053;-78
2022/11/23 09:24:04;;;;;;;13.82;2.65;;;;;;;6.55;100.00;99621.09;5032918;28;20373;-82
2022/11/23 09:26:32;;;;;;;13.18;2.40;;;;;;;6.59;100.00;99619.03;5033241;28;20135;-83
2022/11/23 09:28:58;;;;;;;10.20;2.80;;;;;;;6.63;100.00;99615.94;5033271;28;20474;-78
2022/11/23 09:31:25;;;;;;;13.63;2.88;;;;;;;6.66;100.00;99612.19;5033615;28;20050;-79
2022/11/23 09:33:52;;;;;;;13.98;2.35;;;;;;;6.66;100.00;99607.72;5033514;28;20530;-78
2022/11/23 09:36:17;;;;;;;19.30;3.20;;;;;;;6.68;100.00;99608.41;5034341;28;20168;-80
2022/11/23 09:38:43;;;;;;;16.60;2.88;;;;;;;6.71;100.00;99599.34;5033756;28;20075;-80
2022/11/23 09:41:33;;;;;;;13.57;3.00;;;;;;;6.74;100.00;99606.19;5034090;28;20462;-82
2022/11/23 09:44:07;;;;;;;18.10;3.10;;;;;;;6.73;100.00;99607.97;5035274;28;20067;-80
2022/11/23 09:46:47;;;;;;;19.23;3.50;;;;;;;6.71;100.00;99618.69;5034135;28;20052;-82
2022/11/23 09:49:20;;;;;;;15.88;2.90;;;;;;;6.69;100.00;99619.81;5034713;28;20026;-77
2022/11/23 09:51:47;;;;;;;14.05;3.88;;;;;;;6.70;100.00;99613.53;5033789;28;20482;-80
2022/11/23 09:54:21;;;;;;;15.70;3.55;;;;;;;6.75;100.00;99628.97;5032908;28;20118;-78
2022/11/23 09:56:50;;;;;;;16.85;3.22;;;;;;;6.76;100.00;99628.81;5034198;28;20398;-84
2022/11/23 09:59:21;;;;;;;13.13;3.08;;;;;;;6.79;100.00;99627.72;5034395;28;20482;-81
2022/11/23 10:01:46;;;;;;;;;;;;;;;6.80;100.00;99634.69;5037808;28;20038;-80
2022/11/23 10:04:18;;;;;;;10.93;2.58;;;;;;;6.81;100.00;99628.41;5037319;28;19909;-82
2022/11/23 10:06:43;;;;;;;18.25;3.35;;;;;;;6.84;100.00;99630.78;5037673;28;20033;-85
2022/11/23 10:10:06;;;;;;;15.27;2.40;;;;;;;6.86;100.00;99634.09;5037398;28;20092;-84
2022/11/23 10:12:47;;;;;;;14.02;3.25;;;;;;;6.91;100.00;99645.06;5036296;28;20029;-81
2022/11/23 10:15:26;;;;;;;16.45;3.13;;;;;;;6.86;100.00;99648.13;5018738;28;20037;-80
2022/11/23 10:18:08;;;;;;;17.48;3.50;;;;;;;6.81;100.00;99642.47;5035252;28;20041;-81
2022/11/23 10:20:43;;;;;;;14.30;3.72;;;;;;;6.90;100.00;99632.84;5035577;28;20509;-80
2022/11/23 10:23:45;;;;;;;15.05;3.75;;;;;;;6.99;100.00;99626.66;5035804;28;20045;-79
2022/11/23 10:26:18;;;;;;;15.25;3.45;;;;;;;6.96;100.00;99639.38;5035382;28;20053;-80
2022/11/23 10:28:46;;;;;;;17.67;3.72;;;;;;;6.98;100.00;99638.22;5035597;28;20033;-81
2022/11/23 10:31:18;;;;;;;13.57;3.53;;;;;;;6.87;100.00;99636.59;5035298;28;20040;-81
2022/11/23 10:34:09;;;;;;;17.38;3.47;;;;;;;6.79;100.00;99633.84;5035585;28;20033;-80
2022/11/23 10:36:35;;;;;;;16.50;3.38;;;;;;;6.75;100.00;99642.19;5035516;28;20029;-79
2022/11/23 10:39:09;;;;;;;15.68;4.35;;;;;;;6.74;100.00;99637.91;5035355;28;20525;-81
2022/11/23 10:41:34;;;;;;;14.82;4.45;;;;;;;6.70;100.00;99635.53;5035146;28;20029;-80
2022/11/23 10:44:04;;;;;;;17.30;5.18;;;;;;;6.80;100.00;99627.56;5035328;28;20040;-85
2022/11/23 10:46:38;;;;;;;12.13;3.90;;;;;;;6.81;100.00;99633.72;5035698;28;20029;-81
2022/11/23 10:49:09;;;;;;;19.95;3.90;;;;;;;6.76;100.00;99618.25;5035216;28;20036;-78
2022/11/23 10:51:36;;;;;;;20.83;4.97;;;;;;;6.85;100.00;99616.56;5035623;28;20026;-81
2022/11/23 10:54:05;;;;;;;23.08;4.25;;;;;;;6.79;100.00;99631.22;5035178;28;20026;-86
2022/11/23 10:56:31;;;;;;;15.20;4.95;;;;;;;6.71;100.00;99625.78;5035577;28;20030;-80
2022/11/23 10:58:56;;;;;;;14.65;4.30;;;;;;;6.80;100.00;99595.03;5035063;28;20037;-83
2022/11/23 11:01:25;;;;;;;12.75;4.22;;;;;;;6.85;100.00;99587.47;5034538;28;20038;-84
2022/11/23 11:03:52;;;;;;;14.43;3.72;;;;;;;6.86;100.00;99583.84;5034938;28;20187;-84
2022/11/23 11:06:26;;;;;;;15.25;3.90;;;;;;;6.92;100.00;99590.38;5034998;28;20029;-79
2022/11/23 11:08:55;;;;;;;20.55;4.53;;;;;;;6.82;100.00;99575.41;5035318;28;20049;-86
2022/11/23 11:11:27;;;;;;;10.52;4.18;;;;;;;6.91;100.00;99581.59;5033560;28;20026;-80
2022/11/23 11:14:02;;;;;;;16.23;4.68;;;;;;;6.93;100.00;99571.72;5033494;28;20021;-80
2022/11/23 11:16:31;;;;;;;12.45;5.03;;;;;;;6.97;100.00;99564.31;5034725;28;20030;-85
2022/11/23 11:18:57;;;;;;;14.80;4.57;;;;;;;7.06;100.00;99561.63;5034570;28;20022;-83
2022/11/23 11:21:31;;;;;;;14.77;4.32;;;;;;;7.08;100.00;99553.56;5034420;28;20033;-80
2022/11/23 11:23:59;;;;;;;12.35;4.03;;;;;;;7.32;100.00;99560.09;5034537;28;20029;-82
2022/11/23 11:26:26;;;;;;;16.20;4.30;;;;;;;7.46;100.00;99550.81;5034787;28;20146;-81